Time;durP1;ratioP1;P1;durP2;ratioP2;P2;SDS_P1;SDS_P2;PMS_P1;PMS_P2;Temp;Humidity;BMP_temperature;BMP_pressure;BME280_temperature;BME280_humidity;BME280_pressure;Samples;Min_cycle;Max_cycle;Signal;HPM_P1;HPM_P2
2022/07/30 00:00:05;;;;;;;1.65;1.05;;;23.10;58.30;;;;;;4495487;31;20094;-68
2022/07/30 00:02:31;;;;;;;4.20;1.15;;;23.10;58.30;;;;;;4509668;31;20092;-69
2022/07/30 00:04:57;;;;;;;1.50;0.98;;;23.10;58.30;;;;;;4509990;31;20060;-69
2022/07/30 00:07:23;;;;;;;1.45;1.00;;;23.10;58.30;;;;;;4495378;31;20100;-69
2022/07/30 00:09:48;;;;;;;1.52;1.10;;;23.10;58.30;;;;;;4508598;31;20244;-69
2022/07/30 00:12:14;;;;;;;1.80;1.17;;;23.10;58.20;;;;;;4495340;31;20379;-69
2022/07/30 00:14:40;;;;;;;2.03;1.05;;;23.10;58.20;;;;;;4509406;31;20149;-69
2022/07/30 00:17:06;;;;;;;4.38;1.02;;;23.10;58.20;;;;;;4509478;31;20108;-68
2022/07/30 00:19:32;;;;;;;1.90;1.00;;;23.10;58.20;;;;;;4509173;31;20196;-69
2022/07/30 00:21:57;;;;;;;2.28;1.20;;;23.10;58.20;;;;;;4509490;31;20232;-69
2022/07/30 00:24:23;;;;;;;1.48;0.95;;;23.10;58.20;;;;;;4509217;31;20215;-69
2022/07/30 00:26:49;;;;;;;1.17;0.98;;;23.10;58.20;;;;;;4509358;31;20467;-69
2022/07/30 00:29:15;;;;;;;2.70;1.25;;;23.10;58.20;;;;;;4494697;31;20401;-69
2022/07/30 00:31:41;;;;;;;2.33;1.10;;;23.00;58.10;;;;;;4509548;31;20119;-69
2022/07/30 00:34:06;;;;;;;1.80;1.10;;;23.00;58.10;;;;;;4509237;31;20497;-69
2022/07/30 00:36:32;;;;;;;2.00;0.93;;;23.00;58.10;;;;;;4509204;31;20234;-69
2022/07/30 00:38:58;;;;;;;1.95;1.20;;;23.00;58.10;;;;;;4508796;31;20073;-69
2022/07/30 00:41:25;;;;;;;1.70;0.90;;;23.00;58.10;;;;;;4509066;31;20218;-69
2022/07/30 00:43:51;;;;;;;2.28;0.90;;;23.00;58.10;;;;;;4508863;31;20073;-69
2022/07/30 00:46:17;;;;;;;1.92;1.10;;;23.00;58.10;;;;;;4509254;31;20084;-69
2022/07/30 00:48:43;;;;;;;2.53;1.10;;;23.00;58.10;;;;;;4494513;31;20112;-69
2022/07/30 00:51:09;;;;;;;2.13;1.17;;;23.00;58.10;;;;;;4508951;31;20079;-69
2022/07/30 00:53:34;;;;;;;2.65;1.30;;;23.00;58.10;;;;;;4508986;31;20081;-69
2022/07/30 00:56:01;;;;;;;1.52;1.10;;;23.00;58.10;;;;;;4508909;31;20061;-68
2022/07/30 00:58:28;;;;;;;2.60;1.10;;;23.00;58.10;;;;;;4508886;31;20520;-69
2022/07/30 01:00:54;;;;;;;1.20;1.00;;;23.00;58.10;;;;;;4508864;31;20073;-68
2022/07/30 01:03:20;;;;;;;2.15;0.90;;;23.00;58.10;;;;;;4508932;31;20084;-69
2022/07/30 01:05:46;;;;;;;1.90;1.00;;;23.00;58.10;;;;;;4494189;31;20159;-69
2022/07/30 01:08:12;;;;;;;1.67;0.95;;;23.00;58.10;;;;;;4508469;31;20105;-69
2022/07/30 01:10:38;;;;;;;0.90;0.75;;;23.00;58.10;;;;;;4508994;31;20138;-68
2022/07/30 01:13:04;;;;;;;1.77;0.90;;;23.00;58.10;;;;;;4508645;31;20527;-69
2022/07/30 01:15:30;;;;;;;1.42;0.95;;;23.00;58.10;;;;;;4508476;31;20085;-69
2022/07/30 01:17:59;;;;;;;1.38;1.05;;;23.00;59.00;;;;;;4494289;31;20190;-69
2022/07/30 01:20:32;;;;;;;1.48;0.90;;;22.90;58.00;;;;;;4508233;31;20084;-69
2022/07/30 01:23:09;;;;;;;1.63;1.00;;;23.00;58.10;;;;;;4508351;31;20524;-69
2022/07/30 01:26:06;;;;;;;1.08;0.70;;;22.90;58.00;;;;;;4508786;31;20157;-69
2022/07/30 01:28:36;;;;;;;1.70;0.93;;;22.90;57.90;;;;;;4508793;31;20108;-69
2022/07/30 01:31:04;;;;;;;1.30;0.90;;;22.90;58.00;;;;;;4494107;31;20142;-69
2022/07/30 01:33:31;;;;;;;1.58;0.90;;;22.90;58.00;;;;;;4508075;31;20135;-69
2022/07/30 01:35:58;;;;;;;1.27;1.02;;;22.90;58.00;;;;;;4508527;31;20514;-69
2022/07/30 01:38:27;;;;;;;1.92;1.00;;;22.90;58.00;;;;;;4508183;31;20096;-68
2022/07/30 01:40:54;;;;;;;1.45;1.00;;;22.90;58.00;;;;;;4508013;31;20101;-69
2022/07/30 01:43:23;;;;;;;0.88;0.82;;;22.90;58.00;;;;;;4508327;31;20073;-68
2022/07/30 01:45:50;;;;;;;0.88;0.80;;;22.90;58.00;;;;;;4508025;31;20168;-69
2022/07/30 01:48:19;;;;;;;1.70;0.70;;;22.90;58.00;;;;;;4508194;31;20076;-69
2022/07/30 01:50:48;;;;;;;1.48;0.82;;;22.90;58.00;;;;;;4508292;31;20133;-69
2022/07/30 01:53:20;;;;;;;1.85;0.95;;;22.90;57.90;;;;;;4508146;31;20084;-69
2022/07/30 01:55:46;;;;;;;1.33;0.90;;;22.90;57.90;;;;;;4508352;31;20104;-69
2022/07/30 01:58:15;;;;;;;1.42;0.88;;;22.90;57.90;;;;;;4507986;31;20128;-69
2022/07/30 02:00:43;;;;;;;1.42;0.73;;;22.90;57.90;;;;;;4508327;31;20111;-68
2022/07/30 02:03:10;;;;;;;1.30;0.90;;;22.90;58.00;;;;;;4508271;31;20181;-68
2022/07/30 02:05:37;;;;;;;1.25;0.80;;;22.90;57.90;;;;;;4508201;31;20061;-68
2022/07/30 02:08:15;;;;;;;1.65;0.80;;;22.90;57.90;;;;;;4507485;31;20116;-69
2022/07/30 02:10:57;;;;;;;1.70;1.05;;;22.90;57.90;;;;;;4508256;31;20068;-69
2022/07/30 02:13:28;;;;;;;1.90;0.90;;;22.90;57.90;;;;;;4507881;31;20155;-69
2022/07/30 02:16:01;;;;;;;3.75;0.70;;;22.90;57.90;;;;;;4507764;31;20099;-69
2022/07/30 02:18:37;;;;;;;1.03;0.77;;;22.90;58.00;;;;;;4508228;31;20085;-68
2022/07/30 02:21:06;;;;;;;1.23;0.90;;;22.90;57.90;;;;;;4508133;31;20100;-69
2022/07/30 02:23:39;;;;;;;1.45;0.80;;;22.80;57.90;;;;;;4507578;31;20084;-69
2022/07/30 02:26:09;;;;;;;2.42;0.85;;;22.80;57.90;;;;;;4508111;31;20464;-69
2022/07/30 02:28:38;;;;;;;1.10;0.70;;;22.80;58.00;;;;;;4508147;31;20195;-69
2022/07/30 02:31:07;;;;;;;1.88;1.08;;;22.80;57.90;;;;;;4508003;31;20088;-68
2022/07/30 02:33:37;;;;;;;1.20;0.90;;;22.80;57.90;;;;;;4509837;31;20080;-69
2022/07/30 02:36:05;;;;;;;1.30;0.80;;;22.80;57.90;;;;;;4511196;31;20108;-69
2022/07/30 02:38:32;;;;;;;1.05;0.70;;;22.80;57.90;;;;;;4510807;31;20141;-68
2022/07/30 02:41:00;;;;;;;1.27;0.88;;;22.80;57.90;;;;;;4510706;31;20533;-69
2022/07/30 02:43:28;;;;;;;1.63;0.90;;;22.80;57.90;;;;;;4510900;31;20214;-69
2022/07/30 02:45:55;;;;;;;1.00;0.70;;;22.80;57.90;;;;;;4510889;31;20533;-68
2022/07/30 02:48:26;;;;;;;1.02;0.77;;;22.80;57.90;;;;;;4510580;31;20514;-69
2022/07/30 02:50:54;;;;;;;1.02;0.70;;;22.80;58.00;;;;;;4511121;31;20073;-68
2022/07/30 02:53:22;;;;;;;1.10;0.80;;;22.80;57.90;;;;;;4496224;31;20088;-69
2022/07/30 02:55:49;;;;;;;1.10;0.70;;;22.80;57.90;;;;;;4510348;31;20080;-68
2022/07/30 02:58:19;;;;;;;1.00;0.70;;;22.80;57.90;;;;;;4510436;31;20112;-68
2022/07/30 03:00:49;;;;;;;1.10;1.00;;;22.80;57.90;;;;;;4510754;31;20076;-68
2022/07/30 03:03:16;;;;;;;1.85;0.80;;;22.80;57.90;;;;;;4510948;31;20153;-69
2022/07/30 03:05:43;;;;;;;1.27;0.75;;;22.80;57.90;;;;;;4510626;31;20080;-68
2022/07/30 03:08:10;;;;;;;1.92;0.98;;;22.80;57.90;;;;;;4496074;31;20211;-68
2022/07/30 03:10:38;;;;;;;1.42;0.80;;;22.80;57.90;;;;;;4510816;31;20091;-68
2022/07/30 03:13:06;;;;;;;1.35;0.80;;;22.80;57.90;;;;;;4510668;31;20170;-68
2022/07/30 03:15:34;;;;;;;0.80;0.70;;;22.80;57.90;;;;;;4496099;31;20206;-68
2022/07/30 03:18:02;;;;;;;0.95;0.75;;;22.70;57.80;;;;;;4510104;31;20214;-68
2022/07/30 03:20:30;;;;;;;1.00;0.80;;;22.70;57.80;;;;;;4510060;31;20173;-69
2022/07/30 03:22:58;;;;;;;0.82;0.70;;;22.70;57.80;;;;;;4510400;31;20661;-69
2022/07/30 03:25:29;;;;;;;0.90;0.60;;;22.70;57.80;;;;;;4496060;31;20081;-69
2022/07/30 03:27:58;;;;;;;0.98;0.70;;;22.70;57.80;;;;;;4510478;31;20068;-69
2022/07/30 03:30:25;;;;;;;0.60;0.60;;;22.70;57.80;;;;;;4510265;31;20135;-69
2022/07/30 03:32:52;;;;;;;1.20;0.60;;;22.70;57.80;;;;;;4509946;31;20073;-68
2022/07/30 03:35:20;;;;;;;1.05;0.60;;;22.70;57.80;;;;;;4510064;31;20723;-68
2022/07/30 03:37:48;;;;;;;0.88;0.63;;;22.70;57.80;;;;;;4509966;31;20076;-69
2022/07/30 03:40:15;;;;;;;2.08;0.73;;;22.70;57.80;;;;;;4510006;31;20073;-68
2022/07/30 03:42:41;;;;;;;1.00;0.77;;;22.70;57.90;;;;;;4510138;31;20528;-69
2022/07/30 03:45:08;;;;;;;0.88;0.70;;;22.70;57.80;;;;;;4509719;31;20069;-69
2022/07/30 03:47:37;;;;;;;0.60;0.50;;;22.70;57.80;;;;;;4509967;31;20100;-68
2022/07/30 03:50:04;;;;;;;0.98;0.80;;;22.70;57.80;;;;;;4509944;31;20160;-69
2022/07/30 03:52:33;;;;;;;0.93;0.60;;;22.70;57.90;;;;;;4509850;31;20445;-69
2022/07/30 03:55:01;;;;;;;1.35;0.70;;;22.70;57.90;;;;;;4495518;31;20065;-69
2022/07/30 03:57:27;;;;;;;1.45;0.60;;;22.60;57.80;;;;;;4509779;31;20065;-69
2022/07/30 03:59:53;;;;;;;0.93;0.60;;;22.60;57.80;;;;;;4495213;31;20124;-68
2022/07/30 04:02:19;;;;;;;0.65;0.52;;;22.60;57.80;;;;;;4509715;31;20506;-68
2022/07/30 04:04:45;;;;;;;0.80;0.68;;;22.60;57.80;;;;;;4509646;31;20061;-69
2022/07/30 04:07:11;;;;;;;1.80;0.65;;;22.60;57.80;;;;;;4509762;31;20214;-68
2022/07/30 04:09:37;;;;;;;1.88;0.60;;;22.60;57.80;;;;;;4509668;31;20069;-68
2022/07/30 04:12:03;;;;;;;2.03;0.70;;;22.60;57.80;;;;;;4509725;31;20122;-69
2022/07/30 04:14:43;;;;;;;0.82;0.70;;;22.60;57.80;;;;;;4494760;31;20077;-69
2022/07/30 04:17:16;;;;;;;1.05;0.70;;;22.60;57.80;;;;;;4509704;31;20088;-69
2022/07/30 04:19:46;;;;;;;1.35;0.70;;;22.60;57.80;;;;;;4509454;31;20178;-68
2022/07/30 04:22:15;;;;;;;0.93;0.57;;;22.60;57.80;;;;;;4509665;31;20390;-68
2022/07/30 04:24:42;;;;;;;1.10;0.60;;;22.60;57.80;;;;;;4509006;31;20094;-69
2022/07/30 04:27:10;;;;;;;0.80;0.55;;;22.60;57.80;;;;;;4509654;31;20135;-68
2022/07/30 04:29:35;;;;;;;2.05;0.90;;;22.60;57.80;;;;;;4509401;31;20080;-68
2022/07/30 04:32:01;;;;;;;0.82;0.70;;;22.60;57.80;;;;;;4509371;31;20208;-68
2022/07/30 04:34:27;;;;;;;0.80;0.60;;;22.60;57.80;;;;;;4508930;31;20085;-69
2022/07/30 04:36:53;;;;;;;1.05;0.70;;;22.60;57.80;;;;;;4508992;31;20112;-68
2022/07/30 04:39:19;;;;;;;0.93;0.65;;;22.60;57.80;;;;;;4509175;31;20104;-68
2022/07/30 04:41:45;;;;;;;0.70;0.60;;;22.60;57.80;;;;;;4509385;31;20049;-68
2022/07/30 04:44:11;;;;;;;2.47;0.63;;;22.60;57.70;;;;;;4509124;31;20525;-68
2022/07/30 04:46:37;;;;;;;1.15;0.63;;;22.60;57.80;;;;;;4494622;31;20076;-68
2022/07/30 04:49:03;;;;;;;1.10;0.57;;;22.60;57.70;;;;;;4508814;31;20151;-68
2022/07/30 04:51:32;;;;;;;1.15;0.80;;;22.60;57.70;;;;;;4494462;31;20127;-68
2022/07/30 04:54:00;;;;;;;0.65;0.55;;;22.60;57.70;;;;;;4508955;31;20608;-68
2022/07/30 04:56:29;;;;;;;0.60;0.60;;;22.50;57.60;;;;;;4508353;31;20544;-68
2022/07/30 04:58:55;;;;;;;0.60;0.60;;;22.60;57.70;;;;;;4508868;31;20079;-68
2022/07/30 05:01:34;;;;;;;0.70;0.60;;;22.50;57.60;;;;;;4494374;31;20513;-68
2022/07/30 05:04:01;;;;;;;1.10;0.75;;;22.50;57.60;;;;;;4508624;31;20510;-68
2022/07/30 05:06:29;;;;;;;0.60;0.60;;;22.50;57.60;;;;;;4508889;31;20391;-68
2022/07/30 05:08:56;;;;;;;0.82;0.55;;;22.50;57.60;;;;;;4508490;31;20528;-68
2022/07/30 05:11:22;;;;;;;0.63;0.63;;;22.60;57.70;;;;;;4508732;31;20092;-68
2022/07/30 05:13:48;;;;;;;1.00;0.85;;;22.50;57.60;;;;;;4494337;31;20152;-68
2022/07/30 05:16:14;;;;;;;0.70;0.70;;;22.50;57.60;;;;;;4508242;31;20542;-68
2022/07/30 05:18:40;;;;;;;0.65;0.60;;;22.50;57.60;;;;;;4508702;31;20413;-68
2022/07/30 05:21:06;;;;;;;0.82;0.65;;;22.50;57.60;;;;;;4508607;31;20134;-68
2022/07/30 05:23:32;;;;;;;0.90;0.50;;;22.50;57.60;;;;;;4508569;31;20193;-68
2022/07/30 05:25:58;;;;;;;0.50;0.50;;;22.50;57.50;;;;;;4508257;31;20083;-68
2022/07/30 05:28:27;;;;;;;1.15;0.52;;;22.50;57.50;;;;;;4508475;31;20414;-68
2022/07/30 05:30:54;;;;;;;0.82;0.60;;;22.50;57.50;;;;;;4508514;31;20108;-68
2022/07/30 05:33:21;;;;;;;0.65;0.52;;;22.60;57.50;;;;;;4508628;31;20096;-68
2022/07/30 05:35:48;;;;;;;0.70;0.60;;;22.50;57.50;;;;;;4508338;31;20525;-68
2022/07/30 05:38:16;;;;;;;0.75;0.60;;;22.50;57.50;;;;;;4508246;31;20170;-68
2022/07/30 05:40:43;;;;;;;1.30;0.65;;;22.60;57.50;;;;;;4508558;31;20075;-68
2022/07/30 05:43:09;;;;;;;1.00;0.80;;;22.60;57.50;;;;;;4508515;31;20170;-68
2022/07/30 05:45:35;;;;;;;0.55;0.50;;;22.60;57.60;;;;;;4493828;31;20538;-68
2022/07/30 05:48:01;;;;;;;1.40;0.55;;;22.50;58.50;;;;;;4493980;31;20064;-68
2022/07/30 05:50:27;;;;;;;0.77;0.60;;;22.60;57.60;;;;;;4508202;31;20492;-68
2022/07/30 05:52:54;;;;;;;0.85;0.52;;;22.60;57.60;;;;;;4507918;31;20072;-68
2022/07/30 05:55:20;;;;;;;0.50;0.50;;;22.60;57.60;;;;;;4493876;31;20088;-68
2022/07/30 05:57:46;;;;;;;0.50;0.50;;;22.60;57.60;;;;;;4508364;31;20460;-68
2022/07/30 06:00:12;;;;;;;0.80;0.65;;;22.60;57.60;;;;;;4507860;31;20100;-68
2022/07/30 06:02:39;;;;;;;1.35;0.57;;;22.60;57.60;;;;;;4508010;31;20076;-68
2022/07/30 06:05:06;;;;;;;0.70;0.60;;;22.60;57.60;;;;;;4508066;31;20084;-68
2022/07/30 06:07:32;;;;;;;1.08;0.68;;;22.60;57.60;;;;;;4507630;31;20068;-68
2022/07/30 06:10:01;;;;;;;0.70;0.52;;;22.60;57.60;;;;;;4507946;31;20091;-68
2022/07/30 06:12:28;;;;;;;1.17;0.60;;;22.60;57.60;;;;;;4493594;31;20392;-68
2022/07/30 06:14:54;;;;;;;0.95;0.50;;;22.60;57.50;;;;;;4507447;31;20569;-68
2022/07/30 06:17:20;;;;;;;0.60;0.50;;;22.60;57.60;;;;;;4507828;31;20506;-68
2022/07/30 06:19:46;;;;;;;0.63;0.50;;;22.60;57.60;;;;;;4507580;31;20083;-68
2022/07/30 06:22:12;;;;;;;0.63;0.50;;;22.60;57.60;;;;;;4507853;31;20080;-68
2022/07/30 06:24:37;;;;;;;2.10;0.80;;;22.70;57.60;;;;;;4508012;31;20161;-68
2022/07/30 06:27:03;;;;;;;0.52;0.52;;;22.70;57.70;;;;;;4508090;31;20534;-68
2022/07/30 06:29:29;;;;;;;0.75;0.50;;;22.70;57.60;;;;;;4479989;31;20186;-69
2022/07/30 06:31:55;;;;;;;1.00;0.55;;;22.70;57.60;;;;;;4507631;31;20071;-68
2022/07/30 06:34:21;;;;;;;0.85;0.70;;;22.70;57.70;;;;;;4507237;31;20091;-68
2022/07/30 06:36:47;;;;;;;0.52;0.52;;;22.70;57.70;;;;;;4508013;31;20528;-68
2022/07/30 06:39:13;;;;;;;1.52;0.55;;;22.80;57.70;;;;;;4507197;31;20561;-68
2022/07/30 06:41:39;;;;;;;1.85;0.68;;;22.80;57.70;;;;;;4493390;31;20567;-68
2022/07/30 06:44:05;;;;;;;1.92;0.90;;;22.80;57.70;;;;;;4493441;31;20065;-67
2022/07/30 06:46:31;;;;;;;5.47;1.70;;;22.80;57.70;;;;;;4493176;31;20521;-67
2022/07/30 06:48:56;;;;;;;2.22;1.85;;;22.90;58.10;;;;;;4507820;31;20206;-67
2022/07/30 06:51:22;;;;;;;8.15;2.65;;;22.90;58.20;;;;;;4493253;31;20154;-67
2022/07/30 06:53:48;;;;;;;5.22;3.08;;;22.90;59.60;;;;;;4507286;31;20183;-66
2022/07/30 06:56:14;;;;;;;6.45;3.20;;;23.00;59.10;;;;;;4507414;31;20124;-66
2022/07/30 06:58:40;;;;;;;9.13;3.75;;;23.00;59.10;;;;;;4507728;31;20494;-67
2022/07/30 07:01:06;;;;;;;7.25;3.60;;;23.10;59.40;;;;;;4507706;31;20154;-67
2022/07/30 07:03:32;;;;;;;7.97;3.60;;;23.10;59.40;;;;;;4507445;31;20080;-67
2022/07/30 07:05:58;;;;;;;8.18;3.85;;;23.10;59.40;;;;;;4493262;31;20072;-66
2022/07/30 07:08:25;;;;;;;8.98;4.18;;;23.10;59.50;;;;;;4507363;31;20092;-66
2022/07/30 07:10:51;;;;;;;8.50;3.65;;;23.10;59.70;;;;;;4493095;31;20087;-66
2022/07/30 07:13:16;;;;;;;7.68;3.80;;;23.20;59.70;;;;;;4507309;31;20068;-66
2022/07/30 07:15:42;;;;;;;7.10;3.75;;;23.20;59.70;;;;;;4492857;31;20413;-66
2022/07/30 07:18:08;;;;;;;6.72;3.30;;;23.30;59.70;;;;;;4507794;31;20131;-66
2022/07/30 07:20:34;;;;;;;7.30;3.03;;;23.30;59.60;;;;;;4510343;31;20255;-66
2022/07/30 07:23:00;;;;;;;6.88;3.10;;;23.30;59.70;;;;;;4495793;31;20596;-66
2022/07/30 07:25:27;;;;;;;5.32;2.83;;;23.30;59.60;;;;;;4510284;31;20065;-67
2022/07/30 07:27:53;;;;;;;4.80;2.92;;;23.30;59.70;;;;;;4510265;31;20541;-67
2022/07/30 07:30:18;;;;;;;6.07;2.85;;;23.40;59.80;;;;;;4496061;31;20214;-66
2022/07/30 07:32:44;;;;;;;6.40;2.90;;;23.40;59.80;;;;;;4510195;31;20095;-66
2022/07/30 07:35:12;;;;;;;6.70;2.60;;;23.40;59.90;;;;;;4509995;31;20069;-66
2022/07/30 07:37:38;;;;;;;7.53;2.78;;;23.40;59.90;;;;;;4510007;31;20096;-66
2022/07/30 07:40:07;;;;;;;7.88;3.13;;;23.50;60.00;;;;;;4496206;31;20489;-66
2022/07/30 07:42:33;;;;;;;6.60;2.90;;;23.50;60.20;;;;;;4510043;31;20234;-66
2022/07/30 07:44:58;;;;;;;7.30;2.70;;;23.50;60.20;;;;;;4509928;31;20157;-67
2022/07/30 07:47:24;;;;;;;5.75;2.70;;;23.60;60.30;;;;;;4510224;31;20120;-66
2022/07/30 07:49:54;;;;;;;5.28;2.67;;;23.60;60.30;;;;;;4509969;31;20061;-66
2022/07/30 07:52:20;;;;;;;4.30;2.45;;;23.60;60.40;;;;;;4509637;31;20099;-66
2022/07/30 07:54:46;;;;;;;5.20;2.60;;;23.60;60.40;;;;;;4509798;31;20116;-66
2022/07/30 07:57:12;;;;;;;8.77;2.40;;;23.70;60.60;;;;;;4510143;31;20107;-66
2022/07/30 07:59:37;;;;;;;4.25;2.22;;;23.70;60.60;;;;;;4509784;31;20081;-66
2022/07/30 08:02:03;;;;;;;4.65;1.90;;;23.70;60.50;;;;;;4510062;31;20210;-67
2022/07/30 08:04:30;;;;;;;4.90;2.13;;;23.80;60.60;;;;;;4509462;31;20089;-66
2022/07/30 08:06:56;;;;;;;4.57;1.90;;;23.80;61.50;;;;;;4509404;31;20080;-66
2022/07/30 08:09:22;;;;;;;6.10;2.30;;;23.80;60.60;;;;;;4482155;31;20083;-66
2022/07/30 08:11:48;;;;;;;4.15;1.88;;;23.80;60.70;;;;;;4509911;31;20068;-66
2022/07/30 08:14:14;;;;;;;8.27;2.53;;;23.80;60.70;;;;;;4509265;31;20120;-66
2022/07/30 08:16:40;;;;;;;5.18;2.10;;;23.80;60.80;;;;;;4509921;31;20079;-66
2022/07/30 08:19:05;;;;;;;7.95;2.40;;;23.80;60.80;;;;;;4495207;31;20061;-66
2022/07/30 08:21:31;;;;;;;6.72;2.42;;;23.80;60.80;;;;;;4509203;31;20194;-66
2022/07/30 08:23:57;;;;;;;7.93;2.15;;;23.80;60.90;;;;;;4509414;31;20088;-66
2022/07/30 08:26:23;;;;;;;8.27;2.38;;;23.80;61.00;;;;;;4509652;31;20640;-66
2022/07/30 08:28:49;;;;;;;7.03;2.13;;;23.90;61.20;;;;;;4494801;31;20080;-66
2022/07/30 08:31:15;;;;;;;4.72;2.25;;;23.90;61.20;;;;;;4508209;31;20517;-67
2022/07/30 08:33:40;;;;;;;6.68;2.10;;;23.90;61.20;;;;;;4509301;31;20508;-66
2022/07/30 08:36:07;;;;;;;5.13;1.70;;;23.90;61.20;;;;;;4509284;31;20378;-66
2022/07/30 08:38:33;;;;;;;4.70;1.70;;;24.00;61.30;;;;;;4508860;31;20193;-67
2022/07/30 08:40:59;;;;;;;8.07;2.00;;;24.00;61.30;;;;;;4509111;31;20576;-67
2022/07/30 08:43:25;;;;;;;5.10;1.83;;;24.00;61.30;;;;;;4508809;31;20539;-67
2022/07/30 08:45:52;;;;;;;7.90;1.98;;;24.00;61.20;;;;;;4508704;31;20181;-67
2022/07/30 08:48:21;;;;;;;4.70;1.98;;;24.10;61.20;;;;;;4508820;31;20154;-67
2022/07/30 08:50:47;;;;;;;7.63;2.15;;;24.10;61.10;;;;;;4509189;31;20198;-67
2022/07/30 08:53:14;;;;;;;6.13;2.13;;;24.10;61.20;;;;;;4494530;31;20073;-67
2022/07/30 08:55:40;;;;;;;9.15;2.25;;;24.10;61.20;;;;;;4494660;31;20083;-67
2022/07/30 08:58:26;;;;;;;6.35;2.17;;;24.10;61.10;;;;;;4508622;31;20532;-67
2022/07/30 09:00:52;;;;;;;5.78;2.22;;;24.10;61.20;;;;;;4508970;31;20141;-67
2022/07/30 09:03:18;;;;;;;6.43;2.10;;;24.10;61.20;;;;;;4508898;31;20486;-67
2022/07/30 09:05:45;;;;;;;6.30;2.10;;;24.10;61.10;;;;;;4508853;31;20530;-68
2022/07/30 09:08:11;;;;;;;5.30;2.45;;;24.10;61.20;;;;;;4508490;31;20072;-67
2022/07/30 09:10:37;;;;;;;6.97;2.30;;;24.20;61.30;;;;;;4508486;31;20076;-68
2022/07/30 09:13:03;;;;;;;5.85;1.77;;;24.20;61.20;;;;;;4508463;31;20257;-67
2022/07/30 09:15:29;;;;;;;7.93;2.15;;;24.20;61.10;;;;;;4494091;31;20061;-68
2022/07/30 09:18:01;;;;;;;4.07;1.90;;;24.20;61.10;;;;;;4508573;31;20064;-67
2022/07/30 09:20:29;;;;;;;6.65;2.10;;;24.20;61.10;;;;;;4508682;31;20153;-68
2022/07/30 09:23:00;;;;;;;8.57;2.17;;;24.20;61.00;;;;;;4494120;31;20630;-67
2022/07/30 09:25:40;;;;;;;5.13;2.17;;;24.20;61.00;;;;;;4508540;31;20497;-67
2022/07/30 09:28:08;;;;;;;5.65;2.03;;;24.20;60.90;;;;;;4508587;31;20138;-67
2022/07/30 09:30:47;;;;;;;5.18;2.30;;;24.20;60.80;;;;;;4508379;31;20230;-68
2022/07/30 09:33:14;;;;;;;4.47;2.33;;;24.30;60.80;;;;;;4508328;31;20502;-68
2022/07/30 09:35:41;;;;;;;6.45;2.13;;;24.20;60.70;;;;;;4508766;31;20092;-67
2022/07/30 09:38:11;;;;;;;3.90;2.22;;;24.30;60.70;;;;;;4508269;31;20099;-68
2022/07/30 09:40:37;;;;;;;8.05;2.10;;;24.30;60.60;;;;;;4508315;31;20065;-67
2022/07/30 09:43:09;;;;;;;6.50;2.00;;;24.30;60.60;;;;;;4507647;31;20160;-67
2022/07/30 09:45:35;;;;;;;7.57;2.20;;;24.30;60.50;;;;;;4508092;31;20143;-67
2022/07/30 09:48:02;;;;;;;3.33;1.90;;;24.30;60.40;;;;;;4508379;31;20118;-68
2022/07/30 09:50:28;;;;;;;7.97;1.98;;;24.30;60.40;;;;;;4508352;31;20155;-68
2022/07/30 09:53:04;;;;;;;4.07;2.15;;;24.30;60.40;;;;;;4508187;31;20322;-68
2022/07/30 09:55:34;;;;;;;5.03;1.98;;;24.30;60.30;;;;;;4508304;31;20238;-68
2022/07/30 09:58:04;;;;;;;6.25;2.13;;;24.30;60.20;;;;;;4508458;31;20281;-67
2022/07/30 10:00:32;;;;;;;6.82;2.15;;;24.30;60.20;;;;;;4507993;31;20072;-68
2022/07/30 10:03:02;;;;;;;5.30;1.95;;;24.30;60.20;;;;;;4509968;31;20543;-67
2022/07/30 10:05:28;;;;;;;7.88;1.90;;;24.30;60.10;;;;;;4509642;31;20436;-68
2022/07/30 10:08:00;;;;;;;5.68;1.80;;;24.30;60.00;;;;;;4508696;31;20469;-67
2022/07/30 10:10:29;;;;;;;3.38;1.80;;;24.30;60.00;;;;;;4507973;31;20379;-67
2022/07/30 10:13:00;;;;;;;3.97;1.70;;;24.30;59.90;;;;;;4508105;31;20099;-67
2022/07/30 10:15:33;;;;;;;4.72;1.73;;;24.30;59.80;;;;;;4493235;31;20531;-67
2022/07/30 10:18:00;;;;;;;5.27;1.97;;;24.30;59.80;;;;;;4508098;31;20092;-68
2022/07/30 10:20:27;;;;;;;3.90;1.92;;;24.30;59.70;;;;;;4508094;31;20092;-67
2022/07/30 10:22:53;;;;;;;6.95;2.13;;;24.30;59.60;;;;;;4507865;31;20206;-67
2022/07/30 10:25:20;;;;;;;5.93;2.20;;;24.30;59.60;;;;;;4507522;31;20088;-68
2022/07/30 10:27:47;;;;;;;3.97;1.55;;;24.30;60.50;;;;;;4507803;31;20087;-67
2022/07/30 10:30:13;;;;;;;7.18;2.20;;;24.30;59.50;;;;;;4507686;31;20103;-67
2022/07/30 10:32:40;;;;;;;3.92;2.00;;;24.30;59.50;;;;;;4507715;31;20068;-67
2022/07/30 10:35:07;;;;;;;4.88;2.05;;;24.30;59.50;;;;;;4507607;31;20064;-67
2022/07/30 10:37:35;;;;;;;5.82;1.88;;;24.30;59.50;;;;;;4493227;31;20153;-68
2022/07/30 10:40:16;;;;;;;5.72;2.10;;;24.30;59.50;;;;;;4507400;31;20081;-67
2022/07/30 10:42:51;;;;;;;5.53;2.13;;;24.30;59.50;;;;;;4507673;31;20122;-67
2022/07/30 10:45:48;;;;;;;4.85;2.30;;;24.30;59.50;;;;;;4507614;31;20641;-67
2022/07/30 10:48:17;;;;;;;4.85;2.20;;;24.30;59.40;;;;;;4507955;31;20089;-68
2022/07/30 10:50:54;;;;;;;5.60;2.20;;;24.20;59.40;;;;;;4507613;31;20084;-67
2022/07/30 10:53:44;;;;;;;7.28;2.33;;;24.20;59.40;;;;;;4508224;31;20088;-67
2022/07/30 10:56:17;;;;;;;7.35;2.65;;;24.30;59.40;;;;;;4510897;31;20168;-67
2022/07/30 10:59:00;;;;;;;5.45;2.22;;;24.30;59.40;;;;;;4510502;31;20080;-68
2022/07/30 11:01:46;;;;;;;5.97;1.88;;;24.30;59.40;;;;;;4510578;31;20210;-68
2022/07/30 11:04:23;;;;;;;5.28;1.80;;;24.30;59.40;;;;;;4510614;31;20092;-67
2022/07/30 11:06:51;;;;;;;5.45;2.55;;;24.30;59.30;;;;;;4510905;31;20079;-68
2022/07/30 11:09:43;;;;;;;4.57;1.88;;;24.30;59.20;;;;;;4510626;31;20097;-67
2022/07/30 11:12:10;;;;;;;3.92;1.80;;;24.30;59.20;;;;;;4508481;31;20061;-67
2022/07/30 11:14:44;;;;;;;5.82;2.28;;;24.40;59.10;;;;;;4510368;31;20514;-67
2022/07/30 11:17:11;;;;;;;5.93;2.42;;;24.40;59.10;;;;;;4510144;31;20089;-67
2022/07/30 11:20:09;;;;;;;7.20;2.22;;;24.40;59.00;;;;;;4510364;31;20514;-67
2022/07/30 11:22:40;;;;;;;4.13;2.20;;;24.40;59.00;;;;;;4500697;31;20418;-67
2022/07/30 11:25:08;;;;;;;6.50;2.03;;;24.40;59.00;;;;;;4495966;31;20087;-66
2022/07/30 11:27:35;;;;;;;3.95;2.10;;;24.40;58.90;;;;;;4510281;31;20536;-67
2022/07/30 11:30:01;;;;;;;7.97;2.30;;;24.40;58.90;;;;;;4510485;31;20099;-67
2022/07/30 11:32:32;;;;;;;6.38;2.08;;;24.40;58.80;;;;;;4510216;31;20230;-67
2022/07/30 11:35:27;;;;;;;6.22;2.20;;;24.40;58.70;;;;;;4510005;31;20089;-66
2022/07/30 11:38:08;;;;;;;4.65;2.08;;;24.40;58.70;;;;;;4509907;31;20076;-67
2022/07/30 11:40:47;;;;;;;5.15;2.33;;;24.40;58.70;;;;;;4510198;31;20092;-66
2022/07/30 11:43:18;;;;;;;5.38;1.90;;;24.50;58.70;;;;;;4509992;31;20541;-67
2022/07/30 11:45:45;;;;;;;3.13;1.95;;;24.50;58.60;;;;;;4509890;31;20088;-66
2022/07/30 11:48:14;;;;;;;4.68;2.20;;;24.50;58.50;;;;;;4509979;31;20087;-67
2022/07/30 11:50:41;;;;;;;6.25;2.03;;;24.50;58.50;;;;;;4509898;31;20124;-67
2022/07/30 11:53:18;;;;;;;4.57;1.90;;;24.50;58.50;;;;;;4509612;31;20316;-67
2022/07/30 11:55:59;;;;;;;7.15;2.17;;;24.60;58.60;;;;;;4510158;31;20665;-66
2022/07/30 11:58:33;;;;;;;6.78;2.10;;;24.50;58.50;;;;;;4509841;31;20476;-67
2022/07/30 12:01:02;;;;;;;2.58;1.63;;;24.50;58.50;;;;;;4495320;31;20084;-67
2022/07/30 12:03:32;;;;;;;3.92;1.90;;;24.50;58.40;;;;;;4509926;31;20289;-68
2022/07/30 12:06:06;;;;;;;5.43;1.85;;;24.50;58.40;;;;;;4509524;31;20073;-68
2022/07/30 12:08:42;;;;;;;6.40;1.92;;;24.50;58.30;;;;;;4509679;31;20076;-67
2022/07/30 12:11:09;;;;;;;6.82;1.88;;;24.50;58.30;;;;;;4509649;31;20513;-67
2022/07/30 12:13:37;;;;;;;4.75;1.90;;;24.60;58.30;;;;;;4509629;31;20080;-67
2022/07/30 12:16:10;;;;;;;7.47;2.15;;;24.60;58.30;;;;;;4509393;31;20230;-66
2022/07/30 12:18:37;;;;;;;3.95;1.83;;;24.60;58.30;;;;;;4509542;31;20214;-66
2022/07/30 12:21:08;;;;;;;3.33;1.60;;;24.60;58.30;;;;;;4509592;31;20072;-67
2022/07/30 12:23:34;;;;;;;4.15;2.00;;;24.60;58.30;;;;;;4510146;31;20099;-66
2022/07/30 12:26:00;;;;;;;6.00;2.22;;;24.60;58.10;;;;;;4509622;31;20065;-67
2022/07/30 12:28:31;;;;;;;4.40;1.60;;;24.60;58.00;;;;;;4509416;31;20132;-67
2022/07/30 12:30:59;;;;;;;7.72;1.85;;;24.60;58.00;;;;;;4509095;31;20252;-67
2022/07/30 12:33:25;;;;;;;4.72;1.90;;;24.60;58.00;;;;;;4509368;31;20126;-67
2022/07/30 12:35:56;;;;;;;5.63;1.95;;;24.60;57.90;;;;;;4509316;31;20092;-67
2022/07/30 12:38:25;;;;;;;6.97;2.08;;;24.60;57.80;;;;;;4509125;31;20165;-67
2022/07/30 12:41:01;;;;;;;4.85;1.80;;;24.60;57.60;;;;;;4509175;31;20069;-67
2022/07/30 12:43:48;;;;;;;7.25;1.98;;;24.60;57.60;;;;;;4494651;31;20558;-69
2022/07/30 12:46:17;;;;;;;6.47;1.70;;;24.70;57.40;;;;;;4508917;31;20396;-67
2022/07/30 12:48:50;;;;;;;4.82;1.92;;;24.70;57.40;;;;;;4508686;31;20489;-67
2022/07/30 12:51:17;;;;;;;7.38;1.90;;;24.70;57.40;;;;;;4508784;31;20088;-68
2022/07/30 12:53:43;;;;;;;4.07;1.70;;;24.70;57.50;;;;;;4508811;31;20080;-67